createdAt,value
2023-04-25T00:00:48.104Z,85.43
2023-04-25T00:01:48.080Z,85.33
2023-04-25T00:02:48.243Z,85.74
2023-04-25T00:03:48.439Z,85.74
2023-04-25T00:04:48.411Z,85.94
2023-04-25T00:05:48.053Z,85.94
2023-04-25T00:06:48.039Z,86.15
2023-04-25T00:07:48.013Z,86.15
2023-04-25T00:08:48.006Z,86.15
2023-04-25T00:09:47.967Z,86.25
2023-04-25T00:10:47.975Z,86.15
2023-04-25T00:11:47.943Z,86.46
2023-04-25T00:12:47.942Z,86.25
2023-04-25T00:13:48.159Z,86.25
2023-04-25T00:14:47.906Z,85.94
2023-04-25T00:15:47.928Z,86.35
2023-04-25T00:16:47.894Z,86.25
2023-04-25T00:17:47.899Z,86.35
2023-04-25T00:18:47.854Z,86.35
2023-04-25T00:19:47.860Z,86.05
2023-04-25T00:20:47.836Z,86.15
2023-04-25T00:21:47.811Z,86.56
2023-04-25T00:22:47.812Z,86.46
2023-04-25T00:23:47.928Z,86.56
2023-04-25T00:24:47.783Z,86.56
2023-04-25T00:25:47.773Z,86.77
2023-04-25T00:26:47.763Z,86.77
2023-04-25T00:27:47.738Z,86.87
2023-04-25T00:28:47.728Z,87.07
2023-04-25T00:29:47.722Z,87.07
2023-04-25T00:30:47.701Z,86.87
2023-04-25T00:31:47.748Z,87.07
2023-04-25T00:32:47.687Z,86.97
2023-04-25T00:33:47.771Z,87.22
2023-04-25T00:34:47.652Z,87.12
2023-04-25T00:35:47.644Z,87.42
2023-04-25T00:36:55.145Z,87.42
2023-04-25T00:37:47.615Z,87.84
2023-04-25T00:38:47.613Z,87.94
2023-04-25T00:39:47.574Z,87.73
2023-04-25T00:40:47.571Z,87.94
2023-04-25T00:41:47.553Z,87.84
2023-04-25T00:42:47.545Z,87.73
2023-04-25T00:43:47.660Z,88.14
2023-04-25T00:44:47.514Z,88.04
2023-04-25T00:45:47.496Z,88.14
2023-04-25T00:46:47.537Z,88.04
2023-04-25T00:47:47.491Z,88.14
2023-04-25T00:48:47.462Z,88.35
2023-04-25T00:49:47.472Z,88.24
2023-04-25T00:50:47.434Z,88.24
2023-04-25T00:51:47.437Z,88.35
2023-04-25T00:52:47.418Z,88.35
2023-04-25T00:53:47.410Z,88.66
2023-04-25T00:54:47.380Z,88.66
2023-04-25T00:55:47.360Z,88.45
2023-04-25T00:56:47.368Z,88.45
2023-04-25T00:57:47.347Z,88.45
2023-04-25T00:58:47.349Z,88.24
2023-04-25T00:59:47.339Z,88.56
2023-04-25T01:00:47.367Z,88.56
2023-04-25T01:01:47.323Z,88.66
2023-04-25T01:02:47.438Z,88.56
2023-04-25T01:03:47.315Z,88.86
2023-04-25T01:04:47.248Z,88.66
2023-04-25T01:05:47.229Z,88.76
2023-04-25T01:06:47.250Z,88.45
2023-04-25T01:07:47.241Z,88.66
2023-04-25T01:08:47.200Z,88.56
2023-04-25T01:09:47.193Z,88.45
2023-04-25T01:10:47.188Z,88.04
2023-04-25T01:11:47.177Z,88.45
2023-04-25T01:12:47.159Z,88.56
2023-04-25T01:13:47.144Z,88.45
2023-04-25T01:14:47.129Z,88.35
2023-04-25T01:15:47.112Z,88.35
2023-04-25T01:16:47.105Z,88.56
2023-04-25T01:17:47.099Z,88.56
2023-04-25T01:18:47.063Z,88.24
2023-04-25T01:19:47.054Z,88.35
2023-04-25T01:20:47.034Z,88.29
2023-04-25T01:21:47.054Z,88.18
2023-04-25T01:22:47.005Z,88.29
2023-04-25T01:23:47.065Z,88.49
2023-04-25T01:24:47.000Z,88.59
2023-04-25T01:25:46.974Z,88.49
2023-04-25T01:26:46.965Z,88.59
2023-04-25T01:27:46.957Z,88.49
2023-04-25T01:28:46.955Z,88.70
2023-04-25T01:29:46.924Z,88.49
2023-04-25T01:30:46.912Z,88.59
2023-04-25T01:31:46.962Z,88.49
2023-04-25T01:32:46.906Z,88.39
2023-04-25T01:33:46.884Z,88.18
2023-04-25T01:34:46.863Z,88.18
2023-04-25T01:35:46.843Z,87.98
2023-04-25T01:36:46.863Z,88.18
2023-04-25T01:37:46.835Z,88.49
2023-04-25T01:38:46.803Z,88.39
2023-04-25T01:39:46.814Z,88.49
2023-04-25T01:40:46.811Z,88.29
2023-04-25T01:41:46.794Z,88.39
2023-04-25T01:42:46.760Z,88.49
2023-04-25T01:43:46.742Z,88.39
2023-04-25T01:44:46.724Z,88.59
2023-04-25T01:45:46.734Z,88.49
2023-04-25T01:46:46.713Z,88.39
2023-04-25T01:47:46.721Z,88.59
2023-04-25T01:48:46.683Z,88.59
2023-04-25T01:49:46.666Z,89.01
2023-04-25T01:50:46.641Z,88.80
2023-04-25T01:51:46.665Z,89.01
2023-04-25T01:52:46.655Z,89.11
2023-04-25T01:53:46.604Z,89.11
2023-04-25T01:54:46.616Z,89.22
2023-04-25T01:55:46.584Z,89.22
2023-04-25T01:56:46.577Z,89.31
2023-04-25T01:57:46.569Z,89.42
2023-04-25T01:58:46.537Z,89.42
2023-04-25T01:59:46.541Z,89.56
2023-04-25T02:00:46.528Z,89.56
2023-04-25T02:01:46.558Z,89.25
2023-04-25T02:02:46.593Z,89.46
2023-04-25T02:03:46.560Z,89.87
2023-04-25T02:04:46.530Z,89.97
2023-04-25T02:05:46.458Z,89.67
2023-04-25T02:06:46.450Z,89.97
2023-04-25T02:07:46.436Z,89.77
2023-04-25T02:08:46.417Z,89.97
2023-04-25T02:09:46.656Z,89.97
2023-04-25T02:10:46.380Z,90.18
2023-04-25T02:11:46.388Z,89.97
2023-04-25T02:12:46.362Z,89.77
2023-04-25T02:13:46.347Z,89.97
2023-04-25T02:14:46.394Z,89.97
2023-04-25T02:15:46.672Z,89.87
2023-04-25T02:16:46.378Z,90.08
2023-04-25T02:17:46.362Z,89.97
2023-04-25T02:18:46.290Z,90.08
2023-04-25T02:19:46.270Z,90.39
2023-04-25T02:20:46.249Z,90.08
2023-04-25T02:21:46.262Z,90.39
2023-04-25T02:22:46.233Z,90.49
2023-04-25T02:23:46.219Z,90.49
2023-04-25T02:24:46.205Z,90.39
2023-04-25T02:25:46.206Z,90.49
2023-04-25T02:26:46.195Z,90.69
2023-04-25T02:27:46.169Z,90.69
2023-04-25T02:28:46.184Z,90.69
2023-04-25T02:29:46.137Z,90.80
2023-04-25T02:30:46.127Z,90.69
2023-04-25T02:31:46.244Z,90.69
2023-04-25T02:32:46.150Z,91.00
2023-04-25T02:33:46.089Z,90.80
2023-04-25T02:34:46.073Z,91.11
2023-04-25T02:35:46.066Z,90.90
2023-04-25T02:36:46.063Z,90.80
2023-04-25T02:37:46.048Z,91.00
2023-04-25T02:38:46.046Z,90.90
2023-04-25T02:39:46.009Z,90.90
2023-04-25T02:40:46.001Z,91.11
2023-04-25T02:41:45.995Z,91.11
2023-04-25T02:42:45.969Z,91.31
2023-04-25T02:43:45.967Z,91.11
2023-04-25T02:44:45.938Z,91.00
2023-04-25T02:45:45.938Z,91.31
2023-04-25T02:46:45.940Z,91.52
2023-04-25T02:47:46.047Z,91.42
2023-04-25T02:48:45.911Z,91.52
2023-04-25T02:49:45.889Z,91.42
2023-04-25T02:50:45.865Z,91.62
2023-04-25T02:51:45.867Z,91.62
2023-04-25T02:52:45.848Z,91.72
2023-04-25T02:53:45.840Z,91.83
2023-04-25T02:54:45.807Z,92.24
2023-04-25T02:55:45.811Z,92.14
2023-04-25T02:56:45.853Z,92.34
2023-04-25T02:57:45.791Z,92.14
2023-04-25T02:58:45.774Z,92.34
2023-04-25T02:59:45.761Z,92.34
2023-04-25T03:00:45.816Z,92.55
2023-04-25T03:01:45.741Z,92.44
2023-04-25T03:02:45.754Z,92.65
2023-04-25T03:03:45.823Z,92.76
2023-04-25T03:04:45.768Z,92.86
2023-04-25T03:05:45.675Z,92.96
2023-04-25T03:06:45.663Z,92.96
2023-04-25T03:07:45.694Z,93.37
2023-04-25T03:08:45.636Z,93.37
2023-04-25T03:09:45.628Z,93.48
2023-04-25T03:10:45.642Z,93.79
2023-04-25T03:11:45.621Z,93.58
2023-04-25T03:12:45.670Z,93.79
2023-04-25T03:13:45.580Z,93.93
2023-04-25T03:14:45.608Z,93.93
2023-04-25T03:15:45.592Z,93.93
2023-04-25T03:16:45.575Z,94.34
2023-04-25T03:17:45.516Z,94.24
2023-04-25T03:18:45.501Z,94.34
2023-04-25T03:19:45.496Z,94.55
2023-04-25T03:20:45.493Z,94.40
2023-04-25T03:21:45.482Z,94.45
2023-04-25T03:22:45.450Z,94.65
2023-04-25T03:23:45.445Z,94.65
2023-04-25T03:24:45.450Z,94.85
2023-04-25T03:25:45.415Z,95.37
2023-04-25T03:26:45.408Z,95.48
2023-04-25T03:27:45.421Z,95.58
2023-04-25T03:28:45.371Z,96.41
2023-04-25T03:29:45.360Z,96.81
2023-04-25T03:30:45.353Z,97.33
2023-04-25T03:31:45.385Z,97.33
2023-04-25T03:32:45.379Z,97.27
2023-04-25T03:33:45.342Z,97.89
2023-04-25T03:34:45.306Z,97.99
2023-04-25T03:35:45.277Z,98.20
2023-04-25T03:36:45.286Z,98.20
2023-04-25T03:37:45.274Z,98.50
2023-04-25T03:38:45.263Z,98.50
2023-04-25T03:39:45.239Z,98.61
2023-04-25T03:40:45.233Z,98.92
2023-04-25T03:41:45.394Z,99.13
2023-04-25T03:42:45.344Z,99.64
2023-04-25T03:43:45.205Z,99.99
2023-04-25T03:44:45.177Z,99.99
2023-04-25T03:45:45.213Z,99.99
2023-04-25T03:46:45.165Z,99.99
2023-04-25T03:47:45.191Z,99.99
2023-04-25T03:48:45.147Z,99.99
2023-04-25T03:49:45.142Z,99.99
2023-04-25T03:50:45.136Z,99.99
2023-04-25T03:51:45.147Z,99.99
2023-04-25T03:52:45.093Z,99.99
2023-04-25T03:53:45.077Z,99.99
2023-04-25T03:54:45.075Z,99.99
2023-04-25T03:55:45.107Z,99.99
2023-04-25T03:56:45.037Z,99.99
2023-04-25T03:57:45.090Z,99.99
2023-04-25T03:58:44.991Z,99.99
2023-04-25T03:59:44.997Z,99.99
2023-04-25T04:00:45.001Z,99.99
2023-04-25T04:01:45.072Z,99.99
2023-04-25T04:02:45.661Z,99.99
2023-04-25T04:03:45.184Z,99.99
2023-04-25T04:04:45.134Z,99.99
2023-04-25T04:05:45.002Z,99.99
2023-04-25T04:06:44.909Z,99.99
2023-04-25T04:07:44.906Z,99.99
2023-04-25T04:08:44.847Z,99.99
2023-04-25T04:09:44.850Z,99.99
2023-04-25T04:10:44.837Z,99.99
2023-04-25T04:11:44.823Z,99.99
2023-04-25T04:12:44.825Z,99.99
2023-04-25T04:13:44.797Z,99.99
2023-04-25T04:14:44.778Z,99.99
2023-04-25T04:15:44.790Z,99.99
2023-04-25T04:16:44.752Z,99.99
2023-04-25T04:17:44.773Z,99.99
2023-04-25T04:18:44.722Z,99.99
2023-04-25T04:19:44.713Z,99.99
2023-04-25T04:20:44.701Z,99.99
2023-04-25T04:21:44.713Z,99.99
2023-04-25T04:22:44.687Z,99.99
2023-04-25T04:23:44.664Z,99.99
2023-04-25T04:24:44.697Z,99.99
2023-04-25T04:25:44.660Z,99.99
2023-04-25T04:26:44.624Z,99.99
2023-04-25T04:27:44.625Z,99.78
2023-04-25T04:28:44.619Z,99.99
2023-04-25T04:29:44.591Z,99.99
2023-04-25T04:30:44.617Z,99.88
2023-04-25T04:31:44.620Z,99.57
2023-04-25T04:32:44.677Z,99.68
2023-04-25T04:33:44.625Z,99.99
2023-04-25T04:34:44.521Z,99.26
2023-04-25T04:35:44.582Z,99.06
2023-04-25T04:36:44.593Z,98.85
2023-04-25T04:37:44.572Z,98.75
2023-04-25T04:38:44.611Z,99.16
2023-04-25T04:39:44.465Z,99.16
2023-04-25T04:40:44.501Z,98.96
2023-04-25T04:41:44.446Z,99.16
2023-04-25T04:42:44.416Z,99.37
2023-04-25T04:43:44.427Z,99.57
2023-04-25T04:44:44.391Z,99.43
2023-04-25T04:45:44.389Z,99.63
2023-04-25T04:46:44.397Z,99.57
2023-04-25T04:47:44.392Z,99.26
2023-04-25T04:48:44.348Z,98.80
2023-04-25T04:49:44.326Z,99.11
2023-04-25T04:50:44.325Z,98.60
2023-04-25T04:51:44.313Z,98.39
2023-04-25T04:52:44.284Z,97.67
2023-04-25T04:53:44.288Z,97.26
2023-04-25T04:54:44.266Z,96.95
2023-04-25T04:55:44.273Z,96.84
2023-04-25T04:56:44.259Z,96.84
2023-04-25T04:57:44.227Z,96.84
2023-04-25T04:58:44.230Z,96.95
2023-04-25T04:59:44.216Z,96.74
2023-04-25T05:00:44.222Z,96.44
2023-04-25T05:01:44.180Z,96.53
2023-04-25T05:02:44.273Z,96.91
2023-04-25T05:03:44.262Z,96.80
2023-04-25T05:04:44.216Z,96.59
2023-04-25T05:05:44.130Z,96.91
2023-04-25T05:06:44.141Z,97.11
2023-04-25T05:07:44.130Z,97.11
2023-04-25T05:08:44.086Z,96.28
2023-04-25T05:09:44.095Z,96.28
2023-04-25T05:10:44.065Z,96.39
2023-04-25T05:11:44.056Z,95.77
2023-04-25T05:12:44.018Z,95.46
2023-04-25T05:13:44.015Z,95.77
2023-04-25T05:14:44.016Z,95.98
2023-04-25T05:15:43.995Z,95.83
2023-04-25T05:16:44.074Z,95.46
2023-04-25T05:17:44.005Z,95.98
2023-04-25T05:18:43.952Z,96.03
2023-04-25T05:19:43.927Z,95.31
2023-04-25T05:20:43.912Z,94.80
2023-04-25T05:21:43.912Z,94.28
2023-04-25T05:22:43.905Z,94.49
2023-04-25T05:23:43.892Z,94.28
2023-04-25T05:24:43.878Z,93.77
2023-04-25T05:25:43.872Z,93.56
2023-04-25T05:26:43.855Z,93.87
2023-04-25T05:27:43.846Z,93.15
2023-04-25T05:28:43.825Z,93.15
2023-04-25T05:29:43.814Z,93.30
2023-04-25T05:30:43.801Z,93.19
2023-04-25T05:31:43.802Z,93.19
2023-04-25T05:32:43.837Z,93.05
2023-04-25T05:33:43.847Z,93.56
2023-04-25T05:34:43.753Z,92.43
2023-04-25T05:35:43.722Z,92.12
2023-04-25T05:36:43.716Z,92.53
2023-04-25T05:37:43.714Z,91.91
2023-04-25T05:38:43.705Z,92.49
2023-04-25T05:39:43.686Z,91.25
2023-04-25T05:40:43.656Z,91.46
2023-04-25T05:41:44.455Z,91.83
2023-04-25T05:42:49.727Z,90.01
2023-04-25T05:43:49.049Z,90.94
2023-04-25T05:44:47.941Z,91.11
2023-04-25T05:45:44.365Z,91.38
2023-04-25T05:46:43.579Z,89.25
2023-04-25T05:47:43.607Z,90.08
2023-04-25T05:48:43.561Z,90.18
2023-04-25T05:49:43.539Z,90.69
2023-04-25T05:50:43.529Z,89.62
2023-04-25T05:51:43.518Z,89.22
2023-04-25T05:52:43.531Z,89.31
2023-04-25T05:53:43.483Z,87.81
2023-04-25T05:54:43.473Z,88.12
2023-04-25T05:55:43.466Z,87.71
2023-04-25T05:56:43.462Z,87.13
2023-04-25T05:57:43.448Z,87.34
2023-04-25T05:58:43.429Z,87.03
2023-04-25T05:59:43.412Z,86.99
2023-04-25T06:00:43.400Z,86.06
2023-04-25T06:01:43.382Z,86.06
2023-04-25T06:02:43.499Z,86.88
2023-04-25T06:03:43.712Z,85.41
2023-04-25T06:04:43.586Z,85.20
2023-04-25T06:05:43.347Z,86.23
2023-04-25T06:06:43.324Z,85.78
2023-04-25T06:07:43.314Z,84.85
2023-04-25T06:08:43.291Z,84.44
2023-04-25T06:09:43.278Z,83.14
2023-04-25T06:10:43.278Z,85.03
2023-04-25T06:11:43.252Z,85.14
2023-04-25T06:12:43.272Z,85.34
2023-04-25T06:13:43.228Z,84.45
2023-04-25T06:14:43.217Z,85.17
2023-04-25T06:15:43.217Z,83.94
2023-04-25T06:16:43.190Z,83.84
2023-04-25T06:17:43.212Z,84.35
2023-04-25T06:18:43.174Z,84.05
2023-04-25T06:19:43.147Z,85.28
2023-04-25T06:20:43.141Z,84.52
2023-04-25T06:21:43.124Z,84.14
2023-04-25T06:22:43.124Z,84.42
2023-04-25T06:23:43.096Z,84.99
2023-04-25T06:24:43.088Z,82.97
2023-04-25T06:25:43.069Z,82.87
2023-04-25T06:26:43.069Z,82.97
2023-04-25T06:27:43.049Z,82.77
2023-04-25T06:28:43.024Z,83.70
2023-04-25T06:29:43.019Z,82.01
2023-04-25T06:30:43.008Z,81.46
2023-04-25T06:31:43.113Z,81.11
2023-04-25T06:32:43.027Z,79.88
2023-04-25T06:33:42.974Z,80.05
2023-04-25T06:34:42.960Z,78.09
2023-04-25T06:35:42.942Z,77.55
2023-04-25T06:36:42.966Z,77.40
2023-04-25T06:37:42.928Z,76.42
2023-04-25T06:38:42.924Z,77.44
2023-04-25T06:39:42.887Z,77.85
2023-04-25T06:40:42.887Z,78.06
2023-04-25T06:41:42.874Z,78.94
2023-04-25T06:42:42.866Z,76.72
2023-04-25T06:43:42.845Z,76.35
2023-04-25T06:44:42.827Z,76.28
2023-04-25T06:45:42.810Z,76.69
2023-04-25T06:46:42.823Z,76.90
2023-04-25T06:47:42.853Z,77.65
2023-04-25T06:48:42.776Z,77.34
2023-04-25T06:49:42.770Z,77.75
2023-04-25T06:50:42.749Z,78.27
2023-04-25T06:51:42.744Z,78.06
2023-04-25T06:52:42.747Z,77.14
2023-04-25T06:53:42.717Z,78.27
2023-04-25T06:54:42.697Z,78.27
2023-04-25T06:55:42.692Z,78.37
2023-04-25T06:56:42.672Z,78.64
2023-04-25T06:57:42.683Z,77.85
2023-04-25T06:58:42.656Z,76.51
2023-04-25T06:59:42.633Z,76.21
2023-04-25T07:00:42.679Z,75.01
2023-04-25T07:01:42.606Z,76.04
2023-04-25T07:02:42.724Z,76.14
2023-04-25T07:03:42.688Z,76.93
2023-04-25T07:04:42.725Z,75.08
2023-04-25T07:05:42.550Z,70.97
2023-04-25T07:06:42.548Z,67.99
2023-04-25T07:07:42.554Z,68.51
2023-04-25T07:08:42.525Z,68.33
2023-04-25T07:09:42.509Z,70.28
2023-04-25T07:10:42.510Z,69.43
2023-04-25T07:11:42.484Z,68.33
2023-04-25T07:12:42.489Z,69.15
2023-04-25T07:13:42.454Z,68.19
2023-04-25T07:14:42.460Z,67.58
2023-04-25T07:15:42.435Z,67.07
2023-04-25T07:16:42.443Z,65.97
2023-04-25T07:17:42.433Z,67.58
2023-04-25T07:18:42.393Z,67.76
2023-04-25T07:19:42.381Z,67.44
2023-04-25T07:20:42.370Z,66.73
2023-04-25T07:21:42.358Z,66.28
2023-04-25T07:22:42.383Z,63.93
2023-04-25T07:23:42.343Z,65.95
2023-04-25T07:24:42.327Z,64.48
2023-04-25T07:25:42.307Z,63.90
2023-04-25T07:26:42.294Z,63.49
2023-04-25T07:27:42.285Z,64.34
2023-04-25T07:28:42.269Z,64.34
2023-04-25T07:29:42.245Z,65.30
2023-04-25T07:30:42.247Z,63.18
2023-04-25T07:31:42.274Z,64.31
2023-04-25T07:32:42.256Z,65.00
2023-04-25T07:33:42.198Z,65.75
2023-04-25T07:34:42.186Z,63.09
2023-04-25T07:35:42.186Z,64.14
2023-04-25T07:36:42.158Z,63.05
2023-04-25T07:37:42.152Z,63.59
2023-04-25T07:38:42.134Z,62.02
2023-04-25T07:39:42.122Z,61.77
2023-04-25T07:40:42.125Z,63.34
2023-04-25T07:41:42.091Z,63.62
2023-04-25T07:42:42.089Z,62.59
2023-04-25T07:43:42.075Z,62.18
2023-04-25T07:44:42.067Z,63.42
2023-04-25T07:45:42.042Z,63.75
2023-04-25T07:46:42.024Z,64.85
2023-04-25T07:47:42.056Z,62.08
2023-04-25T07:48:41.999Z,62.18
2023-04-25T07:49:41.987Z,61.08
2023-04-25T07:50:41.975Z,61.80
2023-04-25T07:51:41.956Z,63.75
2023-04-25T07:52:41.954Z,63.28
2023-04-25T07:53:41.927Z,61.89
2023-04-25T07:54:41.928Z,61.07
2023-04-25T07:55:41.904Z,60.42
2023-04-25T07:56:52.080Z,61.18
2023-04-25T07:57:42.888Z,61.58
2023-04-25T07:58:41.878Z,61.18
2023-04-25T07:59:41.854Z,62.48
2023-04-25T08:00:41.859Z,60.66
2023-04-25T08:01:41.827Z,62.51
2023-04-25T08:02:41.884Z,62.19
2023-04-25T08:03:42.084Z,62.61
2023-04-25T08:04:42.014Z,60.66
2023-04-25T08:05:41.885Z,61.10
2023-04-25T08:06:41.839Z,59.92
2023-04-25T08:07:41.762Z,60.75
2023-04-25T08:08:41.733Z,61.46
2023-04-25T08:09:41.727Z,60.75
2023-04-25T08:10:41.715Z,60.33
2023-04-25T08:11:41.693Z,59.34
2023-04-25T08:12:41.692Z,61.39
2023-04-25T08:13:41.665Z,60.75
2023-04-25T08:14:41.655Z,62.39
2023-04-25T08:15:41.656Z,61.26
2023-04-25T08:16:41.630Z,61.85
2023-04-25T08:17:41.690Z,62.05
2023-04-25T08:18:41.612Z,61.36
2023-04-25T08:19:41.594Z,62.49
2023-04-25T08:20:41.584Z,62.21
2023-04-25T08:21:41.575Z,62.52
2023-04-25T08:22:41.581Z,62.11
2023-04-25T08:23:41.532Z,61.57
2023-04-25T08:24:41.535Z,62.08
2023-04-25T08:25:41.500Z,62.74
2023-04-25T08:26:41.504Z,61.99
2023-04-25T08:27:41.485Z,62.68
2023-04-25T08:28:41.482Z,61.76
2023-04-25T08:29:41.461Z,60.56
2023-04-25T08:30:41.453Z,62.40
2023-04-25T08:31:41.481Z,62.51
2023-04-25T08:32:41.447Z,61.41
2023-04-25T08:33:41.410Z,61.18
2023-04-25T08:34:41.395Z,61.69
2023-04-25T08:35:41.416Z,61.27
2023-04-25T08:36:41.370Z,62.54
2023-04-25T08:37:41.352Z,63.53
2023-04-25T08:38:41.354Z,62.23
2023-04-25T08:39:41.358Z,62.56
2023-04-25T08:40:41.312Z,64.41
2023-04-25T08:41:41.302Z,64.13
2023-04-25T08:42:41.421Z,64.03
2023-04-25T08:43:41.283Z,64.78
2023-04-25T08:44:41.265Z,66.52
2023-04-25T08:45:41.252Z,65.70
2023-04-25T08:46:41.255Z,67.07
2023-04-25T08:47:41.246Z,68.68
2023-04-25T08:48:41.224Z,70.22
2023-04-25T08:49:41.184Z,70.66
2023-04-25T08:50:41.182Z,71.59
2023-04-25T08:51:41.164Z,71.83
2023-04-25T08:52:41.155Z,72.44
2023-04-25T08:53:41.138Z,73.13
2023-04-25T08:54:41.932Z,72.20
2023-04-25T08:55:41.123Z,71.86
2023-04-25T08:56:41.105Z,70.73
2023-04-25T08:57:41.080Z,71.45
2023-04-25T08:58:41.200Z,71.11
2023-04-25T08:59:41.065Z,71.18
2023-04-25T09:00:41.142Z,69.02
2023-04-25T09:01:41.216Z,66.97
2023-04-25T09:02:41.290Z,66.70
2023-04-25T09:03:41.121Z,66.46
2023-04-25T09:04:41.167Z,67.86
2023-04-25T09:05:40.974Z,64.61
2023-04-25T09:06:40.973Z,65.74
2023-04-25T09:07:40.947Z,64.72
2023-04-25T09:08:40.958Z,64.51
2023-04-25T09:09:40.968Z,65.16
2023-04-25T09:10:40.943Z,65.88
2023-04-25T09:11:40.901Z,66.08
2023-04-25T09:12:40.882Z,65.09
2023-04-25T09:13:40.878Z,64.50
2023-04-25T09:14:40.856Z,63.89
2023-04-25T09:15:40.847Z,63.37
2023-04-25T09:16:41.709Z,62.56
2023-04-25T09:17:40.814Z,61.82
2023-04-25T09:19:42.514Z,58.58
2023-04-25T09:21:40.765Z,59.04
2023-04-25T09:22:40.761Z,59.09
2023-04-25T09:23:40.803Z,60.74
2023-04-25T09:24:40.738Z,55.51
2023-04-25T09:25:40.729Z,54.03
2023-04-25T09:26:40.709Z,55.89
2023-04-25T09:27:40.688Z,55.33
2023-04-25T09:28:40.684Z,56.10
2023-04-25T09:29:40.657Z,56.56
2023-04-25T09:30:40.646Z,56.79
2023-04-25T09:31:40.707Z,57.33
2023-04-25T09:32:40.651Z,58.26
2023-04-25T09:33:40.621Z,58.39
2023-04-25T09:34:40.627Z,58.97
2023-04-25T09:35:40.676Z,58.97
2023-04-25T09:36:40.600Z,58.95
2023-04-25T09:37:40.565Z,58.36
2023-04-25T09:38:40.556Z,59.15
2023-04-25T09:39:40.530Z,58.95
2023-04-25T09:40:40.531Z,58.33
2023-04-25T09:41:40.509Z,57.51
2023-04-25T09:42:40.489Z,57.95
2023-04-25T09:43:40.489Z,59.25
2023-04-25T09:44:40.467Z,57.71
2023-04-25T09:45:40.475Z,58.77
2023-04-25T09:46:40.549Z,59.56
2023-04-25T09:47:40.477Z,58.95
2023-04-25T09:48:40.436Z,59.66
2023-04-25T09:49:40.405Z,59.59
2023-04-25T09:50:40.388Z,58.56
2023-04-25T09:51:40.379Z,60.10
2023-04-25T09:52:40.429Z,59.66
2023-04-25T09:53:40.376Z,59.15
2023-04-25T09:54:40.347Z,58.67
2023-04-25T09:55:40.323Z,59.28
2023-04-25T09:56:40.302Z,58.49
2023-04-25T09:57:40.300Z,58.80
2023-04-25T09:58:40.296Z,58.83
2023-04-25T09:59:40.274Z,59.92
2023-04-25T10:00:40.263Z,60.10
2023-04-25T10:01:40.247Z,59.31
2023-04-25T10:02:40.319Z,59.48
2023-04-25T10:03:40.444Z,59.52
2023-04-25T10:04:40.219Z,59.80
2023-04-25T10:05:40.192Z,60.61
2023-04-25T10:06:40.186Z,61.10
2023-04-25T10:07:40.181Z,60.58
2023-04-25T10:08:40.363Z,61.30
2023-04-25T10:09:40.174Z,59.97
2023-04-25T10:10:40.121Z,59.66
2023-04-25T10:11:40.123Z,59.08
2023-04-25T10:12:40.103Z,60.21
2023-04-25T10:13:40.087Z,60.10
2023-04-25T10:14:40.081Z,59.87
2023-04-25T10:15:40.536Z,59.56
2023-04-25T10:16:40.043Z,59.43
2023-04-25T10:17:40.089Z,58.74
2023-04-25T10:18:40.026Z,59.36
2023-04-25T10:19:40.020Z,60.05
2023-04-25T10:20:39.994Z,59.23
2023-04-25T10:21:39.988Z,59.64
2023-04-25T10:22:39.972Z,60.33
2023-04-25T10:23:39.977Z,59.81
2023-04-25T10:24:39.951Z,58.61
2023-04-25T10:25:39.928Z,59.77
2023-04-25T10:26:39.918Z,58.95
2023-04-25T10:27:39.911Z,59.56
2023-04-25T10:28:39.884Z,59.15
2023-04-25T10:29:39.886Z,58.44
2023-04-25T10:30:39.904Z,58.26
2023-04-25T10:31:39.983Z,59.80
2023-04-25T10:32:39.858Z,59.53
2023-04-25T10:33:39.830Z,59.33
2023-04-25T10:34:39.840Z,59.43
2023-04-25T10:35:39.804Z,59.05
2023-04-25T10:36:39.783Z,60.17
2023-04-25T10:37:40.833Z,60.66
2023-04-25T10:38:39.763Z,60.05
2023-04-25T10:39:39.759Z,59.77
2023-04-25T10:40:39.728Z,60.25
2023-04-25T10:41:39.721Z,59.87
2023-04-25T10:42:39.703Z,59.74
2023-04-25T10:43:39.692Z,59.68
2023-04-25T10:44:39.687Z,58.70
2023-04-25T10:45:39.666Z,57.66
2023-04-25T10:46:39.686Z,58.89
2023-04-25T10:47:39.660Z,60.21
2023-04-25T10:48:39.634Z,59.16
2023-04-25T10:49:39.628Z,55.43
2023-04-25T10:50:39.801Z,57.68
2023-04-25T10:51:51.645Z,55.87
2023-04-25T10:52:40.572Z,56.92
2023-04-25T10:53:39.567Z,57.64
2023-04-25T10:54:39.559Z,55.10
2023-04-25T10:55:39.534Z,55.30
2023-04-25T10:56:39.516Z,54.67
2023-04-25T10:57:39.505Z,54.87
2023-04-25T10:58:39.502Z,54.57
2023-04-25T10:59:39.505Z,53.33
2023-04-25T11:00:48.277Z,54.16
2023-04-25T11:01:40.472Z,53.77
2023-04-25T11:02:39.801Z,55.00
2023-04-25T11:03:39.549Z,54.18
2023-04-25T11:04:39.525Z,53.46
2023-04-25T11:05:50.840Z,54.08
2023-04-25T11:06:40.385Z,54.28
2023-04-25T11:07:39.402Z,54.69
2023-04-25T11:08:39.371Z,54.49
2023-04-25T11:09:39.379Z,54.69
2023-04-25T11:10:39.334Z,55.62
2023-04-25T11:11:39.326Z,55.82
2023-04-25T11:12:39.313Z,55.51
2023-04-25T11:13:39.318Z,54.69
2023-04-25T11:15:39.298Z,55.23
2023-04-25T11:16:39.276Z,55.66
2023-04-25T11:17:39.336Z,55.94
2023-04-25T11:18:39.224Z,56.46
2023-04-25T11:19:39.233Z,55.43
2023-04-25T11:20:39.212Z,56.43
2023-04-25T11:21:39.195Z,56.51
2023-04-25T11:22:39.179Z,56.51
2023-04-25T11:23:39.179Z,56.41
2023-04-25T11:24:39.171Z,57.23
2023-04-25T11:25:39.217Z,56.51
2023-04-25T11:26:39.130Z,56.20
2023-04-25T11:27:39.162Z,56.97
2023-04-25T11:28:39.104Z,57.07
2023-04-25T11:29:39.120Z,57.48
2023-04-25T11:30:39.072Z,57.79
2023-04-25T11:31:39.107Z,57.18
2023-04-25T11:32:39.171Z,57.71
2023-04-25T11:33:39.038Z,58.00
2023-04-25T11:34:39.024Z,57.61
2023-04-25T11:35:39.012Z,58.23
2023-04-25T11:36:38.999Z,58.05
2023-04-25T11:37:38.985Z,58.28
2023-04-25T11:38:38.970Z,59.52
2023-04-25T11:39:38.967Z,59.11
2023-04-25T11:40:38.941Z,59.54
2023-04-25T11:41:38.978Z,60.67
2023-04-25T11:42:38.923Z,61.49
2023-04-25T11:43:39.327Z,62.21
2023-04-25T11:44:38.893Z,62.31
2023-04-25T11:45:38.923Z,62.41
2023-04-25T11:46:39.113Z,63.03
2023-04-25T11:47:38.918Z,62.62
2023-04-25T11:48:38.835Z,63.37
2023-04-25T11:49:38.836Z,64.06
2023-04-25T11:50:38.816Z,63.24
2023-04-25T11:51:38.810Z,63.54
2023-04-25T11:52:38.785Z,63.54
2023-04-25T11:53:38.768Z,63.51
2023-04-25T11:54:38.776Z,64.61
2023-04-25T11:55:38.752Z,63.39
2023-04-25T11:56:38.741Z,62.56
2023-04-25T11:57:38.728Z,62.56
2023-04-25T11:58:38.707Z,62.56
2023-04-25T11:59:38.763Z,63.69
2023-04-25T12:00:38.695Z,64.14
2023-04-25T12:01:38.676Z,62.43
2023-04-25T12:02:38.773Z,64.04
2023-04-25T12:03:38.914Z,62.37
2023-04-25T12:04:38.905Z,62.76
2023-04-25T12:05:38.779Z,61.40
2023-04-25T12:06:38.708Z,61.77
2023-04-25T12:07:38.601Z,60.44
2023-04-25T12:08:38.645Z,60.40
2023-04-25T12:09:38.570Z,61.29
2023-04-25T12:10:38.571Z,60.14
2023-04-25T12:11:40.439Z,59.12
2023-04-25T12:12:38.529Z,58.09
2023-04-25T12:13:38.512Z,57.68
2023-04-25T12:14:38.510Z,58.81
2023-04-25T12:15:38.547Z,58.22
2023-04-25T12:16:38.541Z,56.17
2023-04-25T12:17:38.507Z,56.12
2023-04-25T12:18:38.996Z,54.69
2023-04-25T12:19:38.467Z,52.55
2023-04-25T12:20:38.421Z,53.36
2023-04-25T12:21:46.891Z,52.96
2023-04-25T12:22:39.388Z,51.04
2023-04-25T12:23:38.385Z,52.01
2023-04-25T12:24:39.532Z,53.01
2023-04-25T12:25:38.361Z,53.13
2023-04-25T12:26:38.341Z,53.13
2023-04-25T12:27:38.328Z,53.67
2023-04-25T12:28:38.308Z,52.29
2023-04-25T12:29:48.421Z,52.78
2023-04-25T12:30:41.273Z,51.63
2023-04-25T12:31:38.297Z,53.44
2023-04-25T12:32:38.296Z,51.10
2023-04-25T12:33:38.285Z,51.63
2023-04-25T12:34:38.253Z,52.96
2023-04-25T12:35:38.237Z,51.73
2023-04-25T12:36:38.223Z,52.45
2023-04-25T12:37:38.208Z,49.79
2023-04-25T12:38:38.215Z,49.82
2023-04-25T12:39:38.182Z,51.55
2023-04-25T12:40:38.158Z,50.89
2023-04-25T12:41:38.144Z,51.89
2023-04-25T12:42:38.146Z,50.01
2023-04-25T12:43:38.166Z,52.49
2023-04-25T12:44:38.121Z,53.59
2023-04-25T12:45:38.099Z,52.70
2023-04-25T12:46:38.141Z,53.72
2023-04-25T12:47:38.100Z,54.97
2023-04-25T12:48:38.051Z,55.72
2023-04-25T12:49:38.048Z,56.13
2023-04-25T12:50:38.026Z,56.84
2023-04-25T12:51:38.018Z,56.74
2023-04-25T12:52:37.997Z,57.66
2023-04-25T12:53:37.992Z,58.28
2023-04-25T12:54:38.003Z,58.48
2023-04-25T12:55:37.983Z,57.15